sensor_id;sensor_type;location;lat;lon;timestamp;temperature;humidity
6792;DHT22;3433;48.730;9.108;2022-10-26T00:00:11;14.70;99.90
6792;DHT22;3433;48.730;9.108;2022-10-26T00:02:40;14.70;99.90
6792;DHT22;3433;48.730;9.108;2022-10-26T00:05:07;14.70;99.90
6792;DHT22;3433;48.730;9.108;2022-10-26T00:07:34;14.60;99.90
6792;DHT22;3433;48.730;9.108;2022-10-26T00:10:01;14.70;99.90
6792;DHT22;3433;48.730;9.108;2022-10-26T00:12:28;14.60;99.90
6792;DHT22;3433;48.730;9.108;2022-10-26T00:14:55;14.60;99.90
6792;DHT22;3433;48.730;9.108;2022-10-26T00:17:22;14.70;99.90
6792;DHT22;3433;48.730;9.108;2022-10-26T00:19:50;14.60;99.90
6792;DHT22;3433;48.730;9.108;2022-10-26T00:22:17;14.70;99.90
6792;DHT22;3433;48.730;9.108;2022-10-26T00:24:44;14.60;99.90
6792;DHT22;3433;48.730;9.108;2022-10-26T00:27:11;14.60;99.90
6792;DHT22;3433;48.730;9.108;2022-10-26T00:29:38;14.70;99.90
6792;DHT22;3433;48.730;9.108;2022-10-26T00:32:05;14.70;99.90
6792;DHT22;3433;48.730;9.108;2022-10-26T00:34:32;14.70;99.90
6792;DHT22;3433;48.730;9.108;2022-10-26T00:37:00;14.70;99.90
6792;DHT22;3433;48.730;9.108;2022-10-26T00:39:27;14.80;99.90
6792;DHT22;3433;48.730;9.108;2022-10-26T00:41:54;14.80;99.90
6792;DHT22;3433;48.730;9.108;2022-10-26T00:44:55;14.80;99.90
6792;DHT22;3433;48.730;9.108;2022-10-26T00:47:38;14.80;99.90
6792;DHT22;3433;48.730;9.108;2022-10-26T00:50:09;14.80;99.90
6792;DHT22;3433;48.730;9.108;2022-10-26T00:52:39;14.90;99.90
6792;DHT22;3433;48.730;9.108;2022-10-26T00:55:07;14.90;99.90
6792;DHT22;3433;48.730;9.108;2022-10-26T00:57:35;14.90;99.90
6792;DHT22;3433;48.730;9.108;2022-10-26T01:00:04;14.90;99.90
6792;DHT22;3433;48.730;9.108;2022-10-26T01:02:32;14.90;99.90
6792;DHT22;3433;48.730;9.108;2022-10-26T01:05:01;14.90;99.90
6792;DHT22;3433;48.730;9.108;2022-10-26T01:07:28;14.80;99.90
6792;DHT22;3433;48.730;9.108;2022-10-26T01:10:00;14.80;99.90
6792;DHT22;3433;48.730;9.108;2022-10-26T01:12:27;14.90;99.90
6792;DHT22;3433;48.730;9.108;2022-10-26T01:14:54;14.90;99.90
6792;DHT22;3433;48.730;9.108;2022-10-26T01:17:35;14.90;99.90
6792;DHT22;3433;48.730;9.108;2022-10-26T01:20:38;14.90;99.90
6792;DHT22;3433;48.730;9.108;2022-10-26T01:23:17;14.90;99.90
6792;DHT22;3433;48.730;9.108;2022-10-26T01:26:10;14.90;99.90
6792;DHT22;3433;48.730;9.108;2022-10-26T01:28:53;14.90;99.90
6792;DHT22;3433;48.730;9.108;2022-10-26T01:31:27;14.90;99.90
6792;DHT22;3433;48.730;9.108;2022-10-26T01:33:58;14.90;99.90
6792;DHT22;3433;48.730;9.108;2022-10-26T01:36:32;15.00;99.90
6792;DHT22;3433;48.730;9.108;2022-10-26T01:39:06;14.80;99.90
6792;DHT22;3433;48.730;9.108;2022-10-26T01:41:36;14.90;99.90
6792;DHT22;3433;48.730;9.108;2022-10-26T01:44:07;14.90;99.90
6792;DHT22;3433;48.730;9.108;2022-10-26T01:46:38;15.00;99.90
6792;DHT22;3433;48.730;9.108;2022-10-26T01:49:09;15.00;99.90
6792;DHT22;3433;48.730;9.108;2022-10-26T01:51:38;15.00;99.90
6792;DHT22;3433;48.730;9.108;2022-10-26T01:54:06;15.00;99.90
6792;DHT22;3433;48.730;9.108;2022-10-26T01:56:36;15.00;99.90
6792;DHT22;3433;48.730;9.108;2022-10-26T01:59:23;15.00;99.90
6792;DHT22;3433;48.730;9.108;2022-10-26T02:02:27;14.90;99.90
6792;DHT22;3433;48.730;9.108;2022-10-26T02:05:29;14.90;99.90
6792;DHT22;3433;48.730;9.108;2022-10-26T02:08:06;15.00;99.90
6792;DHT22;3433;48.730;9.108;2022-10-26T02:10:43;14.90;99.90
6792;DHT22;3433;48.730;9.108;2022-10-26T02:13:17;15.00;99.90
6792;DHT22;3433;48.730;9.108;2022-10-26T02:15:52;15.00;99.90
6792;DHT22;3433;48.730;9.108;2022-10-26T02:18:27;14.90;99.90
6792;DHT22;3433;48.730;9.108;2022-10-26T02:20:59;14.70;99.90
6792;DHT22;3433;48.730;9.108;2022-10-26T02:23:31;14.70;99.90
6792;DHT22;3433;48.730;9.108;2022-10-26T02:26:00;14.70;99.90
6792;DHT22;3433;48.730;9.108;2022-10-26T02:28:35;14.60;99.90
6792;DHT22;3433;48.730;9.108;2022-10-26T02:31:04;14.70;99.90
6792;DHT22;3433;48.730;9.108;2022-10-26T02:33:37;14.80;99.90
6792;DHT22;3433;48.730;9.108;2022-10-26T02:36:07;14.80;99.90
6792;DHT22;3433;48.730;9.108;2022-10-26T02:38:36;14.80;99.90
6792;DHT22;3433;48.730;9.108;2022-10-26T02:41:07;14.80;99.90
6792;DHT22;3433;48.730;9.108;2022-10-26T02:43:39;14.80;99.90
6792;DHT22;3433;48.730;9.108;2022-10-26T02:46:10;14.80;99.90
6792;DHT22;3433;48.730;9.108;2022-10-26T02:48:40;14.80;99.90
6792;DHT22;3433;48.730;9.108;2022-10-26T02:51:10;14.80;99.90
6792;DHT22;3433;48.730;9.108;2022-10-26T02:53:41;14.80;99.90
6792;DHT22;3433;48.730;9.108;2022-10-26T02:56:13;14.80;99.90
6792;DHT22;3433;48.730;9.108;2022-10-26T02:58:45;14.80;99.90
6792;DHT22;3433;48.730;9.108;2022-10-26T03:01:13;14.80;99.90
6792;DHT22;3433;48.730;9.108;2022-10-26T03:03:41;14.70;99.90
6792;DHT22;3433;48.730;9.108;2022-10-26T03:06:08;14.70;99.90
6792;DHT22;3433;48.730;9.108;2022-10-26T03:08:35;14.80;99.90
6792;DHT22;3433;48.730;9.108;2022-10-26T03:11:02;14.80;99.90
6792;DHT22;3433;48.730;9.108;2022-10-26T03:13:29;14.80;99.90
6792;DHT22;3433;48.730;9.108;2022-10-26T03:15:56;14.80;99.90
6792;DHT22;3433;48.730;9.108;2022-10-26T03:18:23;14.80;99.90
6792;DHT22;3433;48.730;9.108;2022-10-26T03:20:51;14.80;99.90
6792;DHT22;3433;48.730;9.108;2022-10-26T03:23:18;14.80;99.90
6792;DHT22;3433;48.730;9.108;2022-10-26T03:25:47;14.80;99.90
6792;DHT22;3433;48.730;9.108;2022-10-26T03:28:15;14.80;99.90
6792;DHT22;3433;48.730;9.108;2022-10-26T03:30:42;14.90;99.90
6792;DHT22;3433;48.730;9.108;2022-10-26T03:33:09;14.90;99.90
6792;DHT22;3433;48.730;9.108;2022-10-26T03:35:36;14.90;99.90
6792;DHT22;3433;48.730;9.108;2022-10-26T03:38:05;14.90;99.90
6792;DHT22;3433;48.730;9.108;2022-10-26T03:40:32;14.90;99.90
6792;DHT22;3433;48.730;9.108;2022-10-26T03:43:00;14.90;99.90
6792;DHT22;3433;48.730;9.108;2022-10-26T03:45:27;15.00;99.90
6792;DHT22;3433;48.730;9.108;2022-10-26T03:47:54;15.10;99.90
6792;DHT22;3433;48.730;9.108;2022-10-26T03:50:21;15.10;99.90
6792;DHT22;3433;48.730;9.108;2022-10-26T03:52:49;15.10;99.90
6792;DHT22;3433;48.730;9.108;2022-10-26T03:55:17;15.00;99.90
6792;DHT22;3433;48.730;9.108;2022-10-26T03:57:45;15.00;99.90
6792;DHT22;3433;48.730;9.108;2022-10-26T04:00:13;15.10;99.90
6792;DHT22;3433;48.730;9.108;2022-10-26T04:02:41;15.00;99.90
6792;DHT22;3433;48.730;9.108;2022-10-26T04:05:08;15.10;99.90
6792;DHT22;3433;48.730;9.108;2022-10-26T04:07:35;15.10;99.90
6792;DHT22;3433;48.730;9.108;2022-10-26T04:10:04;15.20;99.90
6792;DHT22;3433;48.730;9.108;2022-10-26T04:12:35;15.20;99.90
6792;DHT22;3433;48.730;9.108;2022-10-26T04:15:03;15.10;99.90
6792;DHT22;3433;48.730;9.108;2022-10-26T04:17:31;15.20;99.90
6792;DHT22;3433;48.730;9.108;2022-10-26T04:19:58;15.20;99.90
6792;DHT22;3433;48.730;9.108;2022-10-26T04:22:25;15.20;99.90
6792;DHT22;3433;48.730;9.108;2022-10-26T04:24:52;15.20;99.90
6792;DHT22;3433;48.730;9.108;2022-10-26T04:27:18;15.20;99.90
6792;DHT22;3433;48.730;9.108;2022-10-26T04:29:47;15.20;99.90
6792;DHT22;3433;48.730;9.108;2022-10-26T04:32:14;15.20;99.90
6792;DHT22;3433;48.730;9.108;2022-10-26T04:34:41;15.30;99.90
6792;DHT22;3433;48.730;9.108;2022-10-26T04:37:07;15.20;99.90
6792;DHT22;3433;48.730;9.108;2022-10-26T04:39:34;15.00;99.90
6792;DHT22;3433;48.730;9.108;2022-10-26T04:42:01;15.00;99.90
6792;DHT22;3433;48.730;9.108;2022-10-26T04:44:28;15.00;99.90
6792;DHT22;3433;48.730;9.108;2022-10-26T04:46:56;15.10;99.90
6792;DHT22;3433;48.730;9.108;2022-10-26T04:49:23;15.00;99.90
6792;DHT22;3433;48.730;9.108;2022-10-26T04:51:51;15.00;99.90
6792;DHT22;3433;48.730;9.108;2022-10-26T04:54:18;15.00;99.90
6792;DHT22;3433;48.730;9.108;2022-10-26T04:56:45;15.10;99.90
6792;DHT22;3433;48.730;9.108;2022-10-26T04:59:12;15.10;99.90
6792;DHT22;3433;48.730;9.108;2022-10-26T05:01:39;15.20;99.90
6792;DHT22;3433;48.730;9.108;2022-10-26T05:04:07;15.10;99.90
6792;DHT22;3433;48.730;9.108;2022-10-26T05:06:34;15.10;99.90
6792;DHT22;3433;48.730;9.108;2022-10-26T05:09:01;15.10;99.90
6792;DHT22;3433;48.730;9.108;2022-10-26T05:11:28;15.20;99.90
6792;DHT22;3433;48.730;9.108;2022-10-26T05:13:55;15.20;99.90
6792;DHT22;3433;48.730;9.108;2022-10-26T05:16:22;15.20;99.90
6792;DHT22;3433;48.730;9.108;2022-10-26T05:18:49;15.20;99.90
6792;DHT22;3433;48.730;9.108;2022-10-26T05:21:18;15.20;99.90
6792;DHT22;3433;48.730;9.108;2022-10-26T05:23:48;15.10;99.90
6792;DHT22;3433;48.730;9.108;2022-10-26T05:26:17;15.10;99.90
6792;DHT22;3433;48.730;9.108;2022-10-26T05:28:44;15.20;99.90
6792;DHT22;3433;48.730;9.108;2022-10-26T05:31:11;15.10;99.90
6792;DHT22;3433;48.730;9.108;2022-10-26T05:33:38;15.20;99.90
6792;DHT22;3433;48.730;9.108;2022-10-26T05:36:06;15.20;99.90
6792;DHT22;3433;48.730;9.108;2022-10-26T05:38:34;15.10;99.90
6792;DHT22;3433;48.730;9.108;2022-10-26T05:41:01;15.10;99.90
6792;DHT22;3433;48.730;9.108;2022-10-26T05:43:28;15.10;99.90
6792;DHT22;3433;48.730;9.108;2022-10-26T05:45:55;15.10;99.90
6792;DHT22;3433;48.730;9.108;2022-10-26T05:48:22;15.20;99.90
6792;DHT22;3433;48.730;9.108;2022-10-26T05:50:49;15.10;99.90
6792;DHT22;3433;48.730;9.108;2022-10-26T05:53:16;15.20;99.90
6792;DHT22;3433;48.730;9.108;2022-10-26T05:55:46;15.20;99.90
6792;DHT22;3433;48.730;9.108;2022-10-26T05:58:14;15.20;99.90
6792;DHT22;3433;48.730;9.108;2022-10-26T06:00:50;15.30;99.90
6792;DHT22;3433;48.730;9.108;2022-10-26T06:03:29;15.30;99.90
6792;DHT22;3433;48.730;9.108;2022-10-26T06:05:58;15.40;99.90
6792;DHT22;3433;48.730;9.108;2022-10-26T06:08:27;15.40;99.90
6792;DHT22;3433;48.730;9.108;2022-10-26T06:10:56;15.30;99.90
6792;DHT22;3433;48.730;9.108;2022-10-26T06:13:25;15.30;99.90
6792;DHT22;3433;48.730;9.108;2022-10-26T06:16:07;15.30;99.90
6792;DHT22;3433;48.730;9.108;2022-10-26T06:18:42;15.20;99.90
6792;DHT22;3433;48.730;9.108;2022-10-26T06:21:24;15.20;99.90
6792;DHT22;3433;48.730;9.108;2022-10-26T06:24:00;15.20;99.90
6792;DHT22;3433;48.730;9.108;2022-10-26T06:26:39;15.40;99.90
6792;DHT22;3433;48.730;9.108;2022-10-26T06:29:20;15.30;99.90
6792;DHT22;3433;48.730;9.108;2022-10-26T06:31:50;15.30;99.90
6792;DHT22;3433;48.730;9.108;2022-10-26T06:34:25;15.20;99.90
6792;DHT22;3433;48.730;9.108;2022-10-26T06:36:54;15.30;99.90
6792;DHT22;3433;48.730;9.108;2022-10-26T06:39:24;15.40;99.90
6792;DHT22;3433;48.730;9.108;2022-10-26T06:41:54;15.50;99.90
6792;DHT22;3433;48.730;9.108;2022-10-26T06:44:22;15.50;99.90
6792;DHT22;3433;48.730;9.108;2022-10-26T06:46:56;15.50;99.90
6792;DHT22;3433;48.730;9.108;2022-10-26T06:49:29;15.60;99.90
6792;DHT22;3433;48.730;9.108;2022-10-26T06:51:58;15.60;99.90
6792;DHT22;3433;48.730;9.108;2022-10-26T06:54:34;15.50;99.90
6792;DHT22;3433;48.730;9.108;2022-10-26T06:57:10;15.50;99.90
6792;DHT22;3433;48.730;9.108;2022-10-26T06:59:42;15.50;99.90
6792;DHT22;3433;48.730;9.108;2022-10-26T07:02:11;15.40;99.90
6792;DHT22;3433;48.730;9.108;2022-10-26T07:04:39;15.60;99.90
6792;DHT22;3433;48.730;9.108;2022-10-26T07:07:08;15.60;99.90
6792;DHT22;3433;48.730;9.108;2022-10-26T07:09:35;15.60;99.90
6792;DHT22;3433;48.730;9.108;2022-10-26T07:12:02;15.70;99.90
6792;DHT22;3433;48.730;9.108;2022-10-26T07:14:31;15.60;99.90
6792;DHT22;3433;48.730;9.108;2022-10-26T07:16:58;15.60;99.90
6792;DHT22;3433;48.730;9.108;2022-10-26T07:19:25;15.70;99.90
6792;DHT22;3433;48.730;9.108;2022-10-26T07:21:53;15.70;99.90
6792;DHT22;3433;48.730;9.108;2022-10-26T07:24:21;15.80;99.90
6792;DHT22;3433;48.730;9.108;2022-10-26T07:26:48;15.80;99.90
6792;DHT22;3433;48.730;9.108;2022-10-26T07:29:15;15.70;99.90
6792;DHT22;3433;48.730;9.108;2022-10-26T07:31:44;15.70;99.90
6792;DHT22;3433;48.730;9.108;2022-10-26T07:34:11;15.80;99.90
6792;DHT22;3433;48.730;9.108;2022-10-26T07:36:38;15.90;99.90
6792;DHT22;3433;48.730;9.108;2022-10-26T07:39:05;15.90;99.90
6792;DHT22;3433;48.730;9.108;2022-10-26T07:41:33;15.90;99.90
6792;DHT22;3433;48.730;9.108;2022-10-26T07:44:00;15.80;99.90
6792;DHT22;3433;48.730;9.108;2022-10-26T07:46:28;15.70;99.90
6792;DHT22;3433;48.730;9.108;2022-10-26T07:48:56;15.90;99.90
6792;DHT22;3433;48.730;9.108;2022-10-26T07:51:23;15.90;99.90
6792;DHT22;3433;48.730;9.108;2022-10-26T07:53:50;16.00;99.90
6792;DHT22;3433;48.730;9.108;2022-10-26T07:56:17;16.00;99.90
6792;DHT22;3433;48.730;9.108;2022-10-26T07:58:44;16.00;99.90
6792;DHT22;3433;48.730;9.108;2022-10-26T08:01:13;16.10;99.90
6792;DHT22;3433;48.730;9.108;2022-10-26T08:03:41;16.10;99.90
6792;DHT22;3433;48.730;9.108;2022-10-26T08:06:09;16.10;99.90
6792;DHT22;3433;48.730;9.108;2022-10-26T08:08:37;16.20;99.90
6792;DHT22;3433;48.730;9.108;2022-10-26T08:11:04;16.30;99.90
6792;DHT22;3433;48.730;9.108;2022-10-26T08:13:32;16.20;99.90
6792;DHT22;3433;48.730;9.108;2022-10-26T08:16:02;16.30;99.90
6792;DHT22;3433;48.730;9.108;2022-10-26T08:18:30;16.40;99.90
6792;DHT22;3433;48.730;9.108;2022-10-26T08:21:01;16.40;99.90
6792;DHT22;3433;48.730;9.108;2022-10-26T08:23:29;16.40;99.90
6792;DHT22;3433;48.730;9.108;2022-10-26T08:25:57;16.40;99.90
6792;DHT22;3433;48.730;9.108;2022-10-26T08:28:25;16.40;99.90
6792;DHT22;3433;48.730;9.108;2022-10-26T08:30:52;16.40;99.90
6792;DHT22;3433;48.730;9.108;2022-10-26T08:33:19;16.50;99.90
6792;DHT22;3433;48.730;9.108;2022-10-26T08:35:47;16.50;99.90
6792;DHT22;3433;48.730;9.108;2022-10-26T08:38:14;16.50;99.90
6792;DHT22;3433;48.730;9.108;2022-10-26T08:40:42;16.50;99.90
6792;DHT22;3433;48.730;9.108;2022-10-26T08:43:14;16.60;99.90
6792;DHT22;3433;48.730;9.108;2022-10-26T08:45:48;16.50;99.90
6792;DHT22;3433;48.730;9.108;2022-10-26T08:48:18;16.50;99.90
6792;DHT22;3433;48.730;9.108;2022-10-26T08:50:50;16.60;99.90
6792;DHT22;3433;48.730;9.108;2022-10-26T08:53:21;16.70;99.90
6792;DHT22;3433;48.730;9.108;2022-10-26T08:55:55;16.70;99.90
6792;DHT22;3433;48.730;9.108;2022-10-26T08:58:27;16.60;99.90
6792;DHT22;3433;48.730;9.108;2022-10-26T09:00:56;16.80;99.90
6792;DHT22;3433;48.730;9.108;2022-10-26T09:03:24;16.90;99.90
6792;DHT22;3433;48.730;9.108;2022-10-26T09:06:08;16.90;99.90
6792;DHT22;3433;48.730;9.108;2022-10-26T09:08:44;16.80;99.90
6792;DHT22;3433;48.730;9.108;2022-10-26T09:11:24;16.90;99.90
6792;DHT22;3433;48.730;9.108;2022-10-26T09:14:00;17.00;99.90
6792;DHT22;3433;48.730;9.108;2022-10-26T09:16:35;17.10;99.90
6792;DHT22;3433;48.730;9.108;2022-10-26T09:19:27;17.10;99.90
6792;DHT22;3433;48.730;9.108;2022-10-26T09:22:03;17.10;99.90
6792;DHT22;3433;48.730;9.108;2022-10-26T09:24:35;17.30;99.90
6792;DHT22;3433;48.730;9.108;2022-10-26T09:27:12;17.30;99.90
6792;DHT22;3433;48.730;9.108;2022-10-26T09:29:41;17.30;99.90
6792;DHT22;3433;48.730;9.108;2022-10-26T09:32:13;17.50;99.90
6792;DHT22;3433;48.730;9.108;2022-10-26T09:34:47;17.70;99.90
6792;DHT22;3433;48.730;9.108;2022-10-26T09:37:18;18.00;99.90
6792;DHT22;3433;48.730;9.108;2022-10-26T09:39:53;18.20;99.90
6792;DHT22;3433;48.730;9.108;2022-10-26T09:42:26;18.30;99.90
6792;DHT22;3433;48.730;9.108;2022-10-26T09:44:59;18.60;99.90
6792;DHT22;3433;48.730;9.108;2022-10-26T09:47:33;18.80;99.90
6792;DHT22;3433;48.730;9.108;2022-10-26T09:50:17;19.10;99.90
6792;DHT22;3433;48.730;9.108;2022-10-26T09:52:45;19.30;99.90
6792;DHT22;3433;48.730;9.108;2022-10-26T09:55:12;19.60;99.90
6792;DHT22;3433;48.730;9.108;2022-10-26T09:57:43;19.80;99.90
6792;DHT22;3433;48.730;9.108;2022-10-26T10:00:14;19.80;99.90
6792;DHT22;3433;48.730;9.108;2022-10-26T10:02:43;19.70;99.90
6792;DHT22;3433;48.730;9.108;2022-10-26T10:05:22;19.60;99.90
6792;DHT22;3433;48.730;9.108;2022-10-26T10:07:49;19.60;99.90
6792;DHT22;3433;48.730;9.108;2022-10-26T10:10:18;19.40;99.90
6792;DHT22;3433;48.730;9.108;2022-10-26T10:12:49;19.40;99.90
6792;DHT22;3433;48.730;9.108;2022-10-26T10:15:18;19.40;99.90
6792;DHT22;3433;48.730;9.108;2022-10-26T10:17:47;19.40;99.90
6792;DHT22;3433;48.730;9.108;2022-10-26T10:20:19;19.20;99.90
6792;DHT22;3433;48.730;9.108;2022-10-26T10:22:54;19.50;99.90
6792;DHT22;3433;48.730;9.108;2022-10-26T10:25:30;19.70;99.90
6792;DHT22;3433;48.730;9.108;2022-10-26T10:27:58;20.10;99.90
6792;DHT22;3433;48.730;9.108;2022-10-26T10:30:28;20.30;99.90
6792;DHT22;3433;48.730;9.108;2022-10-26T10:33:06;20.60;99.90
6792;DHT22;3433;48.730;9.108;2022-10-26T10:35:33;20.70;99.90
6792;DHT22;3433;48.730;9.108;2022-10-26T10:38:00;20.70;99.90
6792;DHT22;3433;48.730;9.108;2022-10-26T10:40:29;20.80;99.90
6792;DHT22;3433;48.730;9.108;2022-10-26T10:43:09;20.80;99.90
6792;DHT22;3433;48.730;9.108;2022-10-26T10:45:37;20.80;99.90
6792;DHT22;3433;48.730;9.108;2022-10-26T10:48:13;20.90;99.90
6792;DHT22;3433;48.730;9.108;2022-10-26T10:50:51;21.00;99.90
6792;DHT22;3433;48.730;9.108;2022-10-26T10:53:20;21.10;99.90
6792;DHT22;3433;48.730;9.108;2022-10-26T10:56:04;21.20;99.90
6792;DHT22;3433;48.730;9.108;2022-10-26T10:58:39;21.60;99.90
6792;DHT22;3433;48.730;9.108;2022-10-26T11:01:11;21.80;99.90
6792;DHT22;3433;48.730;9.108;2022-10-26T11:03:46;22.10;99.90
6792;DHT22;3433;48.730;9.108;2022-10-26T11:06:21;22.10;99.90
6792;DHT22;3433;48.730;9.108;2022-10-26T11:08:53;22.20;99.90
6792;DHT22;3433;48.730;9.108;2022-10-26T11:11:24;22.10;99.90
6792;DHT22;3433;48.730;9.108;2022-10-26T11:13:57;22.00;99.90
6792;DHT22;3433;48.730;9.108;2022-10-26T11:16:29;21.80;99.90
6792;DHT22;3433;48.730;9.108;2022-10-26T11:18:59;21.90;99.90
6792;DHT22;3433;48.730;9.108;2022-10-26T11:21:29;21.80;99.90
6792;DHT22;3433;48.730;9.108;2022-10-26T11:24:05;21.70;99.90
6792;DHT22;3433;48.730;9.108;2022-10-26T11:26:40;21.80;99.90
6792;DHT22;3433;48.730;9.108;2022-10-26T11:29:18;21.90;99.90
6792;DHT22;3433;48.730;9.108;2022-10-26T11:31:50;21.90;99.90
6792;DHT22;3433;48.730;9.108;2022-10-26T11:34:23;21.90;99.90
6792;DHT22;3433;48.730;9.108;2022-10-26T11:36:54;21.60;99.90
6792;DHT22;3433;48.730;9.108;2022-10-26T11:39:32;21.80;99.90
6792;DHT22;3433;48.730;9.108;2022-10-26T11:42:04;21.90;99.90
6792;DHT22;3433;48.730;9.108;2022-10-26T11:44:39;22.10;99.90
6792;DHT22;3433;48.730;9.108;2022-10-26T11:47:13;22.00;99.90
6792;DHT22;3433;48.730;9.108;2022-10-26T11:49:43;22.10;99.90
6792;DHT22;3433;48.730;9.108;2022-10-26T11:52:16;22.10;99.90
6792;DHT22;3433;48.730;9.108;2022-10-26T11:54:47;22.10;99.90
6792;DHT22;3433;48.730;9.108;2022-10-26T11:57:17;22.00;99.90
6792;DHT22;3433;48.730;9.108;2022-10-26T11:59:49;21.80;99.90
6792;DHT22;3433;48.730;9.108;2022-10-26T12:02:19;21.80;99.90
6792;DHT22;3433;48.730;9.108;2022-10-26T12:04:49;21.70;99.90
6792;DHT22;3433;48.730;9.108;2022-10-26T12:07:23;21.60;99.90
6792;DHT22;3433;48.730;9.108;2022-10-26T12:09:52;21.50;99.90
6792;DHT22;3433;48.730;9.108;2022-10-26T12:12:25;21.50;99.90
6792;DHT22;3433;48.730;9.108;2022-10-26T12:15:02;21.40;99.90
6792;DHT22;3433;48.730;9.108;2022-10-26T12:17:34;21.40;99.90
6792;DHT22;3433;48.730;9.108;2022-10-26T12:20:09;21.10;99.90
6792;DHT22;3433;48.730;9.108;2022-10-26T12:22:39;21.20;99.90
6792;DHT22;3433;48.730;9.108;2022-10-26T12:25:19;21.20;99.90
6792;DHT22;3433;48.730;9.108;2022-10-26T12:27:52;21.20;99.90
6792;DHT22;3433;48.730;9.108;2022-10-26T12:30:26;21.30;99.90
6792;DHT22;3433;48.730;9.108;2022-10-26T12:32:54;21.40;99.90
6792;DHT22;3433;48.730;9.108;2022-10-26T12:35:30;21.40;99.90
6792;DHT22;3433;48.730;9.108;2022-10-26T12:37:58;21.40;99.90
6792;DHT22;3433;48.730;9.108;2022-10-26T12:40:40;21.40;99.90
6792;DHT22;3433;48.730;9.108;2022-10-26T12:43:32;21.40;99.90
6792;DHT22;3433;48.730;9.108;2022-10-26T12:52:42;22.10;99.90
6792;DHT22;3433;48.730;9.108;2022-10-26T12:55:38;22.20;99.90
6792;DHT22;3433;48.730;9.108;2022-10-26T13:07:36;23.00;99.90
6792;DHT22;3433;48.730;9.108;2022-10-26T13:10:05;23.20;99.90
6792;DHT22;3433;48.730;9.108;2022-10-26T13:12:46;23.10;99.90
6792;DHT22;3433;48.730;9.108;2022-10-26T13:15:25;23.50;99.90
6792;DHT22;3433;48.730;9.108;2022-10-26T13:17:58;23.70;99.90
6792;DHT22;3433;48.730;9.108;2022-10-26T13:20:28;23.90;99.90
6792;DHT22;3433;48.730;9.108;2022-10-26T13:22:56;24.30;99.90
6792;DHT22;3433;48.730;9.108;2022-10-26T13:25:25;24.60;99.90
6792;DHT22;3433;48.730;9.108;2022-10-26T13:27:59;24.90;99.90
6792;DHT22;3433;48.730;9.108;2022-10-26T13:30:45;24.90;99.90
6792;DHT22;3433;48.730;9.108;2022-10-26T13:33:24;25.20;99.90
6792;DHT22;3433;48.730;9.108;2022-10-26T13:35:56;25.30;99.90
6792;DHT22;3433;48.730;9.108;2022-10-26T13:38:28;25.10;99.90
6792;DHT22;3433;48.730;9.108;2022-10-26T13:41:04;25.20;99.90
6792;DHT22;3433;48.730;9.108;2022-10-26T13:43:32;25.20;99.90
6792;DHT22;3433;48.730;9.108;2022-10-26T13:46:03;25.40;99.90
6792;DHT22;3433;48.730;9.108;2022-10-26T13:48:36;25.20;99.90
6792;DHT22;3433;48.730;9.108;2022-10-26T13:51:12;25.30;99.90
6792;DHT22;3433;48.730;9.108;2022-10-26T13:53:44;25.20;99.90
6792;DHT22;3433;48.730;9.108;2022-10-26T13:56:18;25.30;99.90
6792;DHT22;3433;48.730;9.108;2022-10-26T13:58:49;25.30;99.90
6792;DHT22;3433;48.730;9.108;2022-10-26T14:01:19;25.40;99.90
6792;DHT22;3433;48.730;9.108;2022-10-26T14:03:47;25.30;99.90
6792;DHT22;3433;48.730;9.108;2022-10-26T14:06:20;25.20;99.90
6792;DHT22;3433;48.730;9.108;2022-10-26T14:08:50;25.00;99.90
6792;DHT22;3433;48.730;9.108;2022-10-26T14:11:20;24.70;99.90
6792;DHT22;3433;48.730;9.108;2022-10-26T14:14:04;24.70;99.90
6792;DHT22;3433;48.730;9.108;2022-10-26T14:16:32;24.80;99.90
6792;DHT22;3433;48.730;9.108;2022-10-26T14:19:00;24.70;99.90
6792;DHT22;3433;48.730;9.108;2022-10-26T14:21:27;24.60;99.90
6792;DHT22;3433;48.730;9.108;2022-10-26T14:23:55;24.70;99.70
6792;DHT22;3433;48.730;9.108;2022-10-26T14:26:25;24.50;99.90
6792;DHT22;3433;48.730;9.108;2022-10-26T14:28:54;24.40;99.90
6792;DHT22;3433;48.730;9.108;2022-10-26T14:31:25;24.40;99.90
6792;DHT22;3433;48.730;9.108;2022-10-26T14:33:53;24.30;99.90
6792;DHT22;3433;48.730;9.108;2022-10-26T14:36:24;24.10;99.90
6792;DHT22;3433;48.730;9.108;2022-10-26T14:38:56;24.00;99.90
6792;DHT22;3433;48.730;9.108;2022-10-26T14:41:24;24.00;99.90
6792;DHT22;3433;48.730;9.108;2022-10-26T14:43:53;24.00;99.90
6792;DHT22;3433;48.730;9.108;2022-10-26T14:46:20;23.80;99.90
6792;DHT22;3433;48.730;9.108;2022-10-26T14:48:54;23.80;99.90
6792;DHT22;3433;48.730;9.108;2022-10-26T14:51:25;23.80;99.90
6792;DHT22;3433;48.730;9.108;2022-10-26T14:53:53;23.70;99.90
6792;DHT22;3433;48.730;9.108;2022-10-26T14:56:27;23.60;99.90
6792;DHT22;3433;48.730;9.108;2022-10-26T14:58:55;23.50;99.90
6792;DHT22;3433;48.730;9.108;2022-10-26T15:01:29;23.40;99.90
6792;DHT22;3433;48.730;9.108;2022-10-26T15:03:59;23.20;99.90
6792;DHT22;3433;48.730;9.108;2022-10-26T15:06:40;23.10;99.90
6792;DHT22;3433;48.730;9.108;2022-10-26T15:09:29;23.00;99.90
6792;DHT22;3433;48.730;9.108;2022-10-26T15:11:57;22.70;99.90
6792;DHT22;3433;48.730;9.108;2022-10-26T15:14:29;22.60;99.90
6792;DHT22;3433;48.730;9.108;2022-10-26T15:17:05;22.40;99.90
6792;DHT22;3433;48.730;9.108;2022-10-26T15:19:43;22.30;99.90
6792;DHT22;3433;48.730;9.108;2022-10-26T15:22:20;22.20;99.90
6792;DHT22;3433;48.730;9.108;2022-10-26T15:24:50;22.00;99.90
6792;DHT22;3433;48.730;9.108;2022-10-26T15:27:17;22.00;99.90
6792;DHT22;3433;48.730;9.108;2022-10-26T15:29:47;21.90;99.90
6792;DHT22;3433;48.730;9.108;2022-10-26T15:32:26;21.80;99.90
6792;DHT22;3433;48.730;9.108;2022-10-26T15:35:25;21.60;99.90
6792;DHT22;3433;48.730;9.108;2022-10-26T15:37:55;21.50;99.90
6792;DHT22;3433;48.730;9.108;2022-10-26T15:40:23;21.50;99.90
6792;DHT22;3433;48.730;9.108;2022-10-26T15:42:52;21.40;99.90
6792;DHT22;3433;48.730;9.108;2022-10-26T15:45:21;21.30;99.90
6792;DHT22;3433;48.730;9.108;2022-10-26T15:47:49;21.30;99.90
6792;DHT22;3433;48.730;9.108;2022-10-26T15:50:20;21.10;99.90
6792;DHT22;3433;48.730;9.108;2022-10-26T15:52:48;20.90;99.90
6792;DHT22;3433;48.730;9.108;2022-10-26T15:55:15;20.80;99.90
6792;DHT22;3433;48.730;9.108;2022-10-26T15:57:42;20.80;99.90
6792;DHT22;3433;48.730;9.108;2022-10-26T16:00:14;20.60;99.90
6792;DHT22;3433;48.730;9.108;2022-10-26T16:02:43;20.50;99.90
6792;DHT22;3433;48.730;9.108;2022-10-26T16:05:11;20.40;99.90
6792;DHT22;3433;48.730;9.108;2022-10-26T16:07:43;20.30;99.90
6792;DHT22;3433;48.730;9.108;2022-10-26T16:10:17;20.20;99.90
6792;DHT22;3433;48.730;9.108;2022-10-26T16:12:46;20.00;99.90
6792;DHT22;3433;48.730;9.108;2022-10-26T16:15:17;19.90;99.90
6792;DHT22;3433;48.730;9.108;2022-10-26T16:17:45;19.80;99.90
6792;DHT22;3433;48.730;9.108;2022-10-26T16:20:13;19.70;99.90
6792;DHT22;3433;48.730;9.108;2022-10-26T16:22:42;19.50;99.90
6792;DHT22;3433;48.730;9.108;2022-10-26T16:25:14;19.40;99.90
6792;DHT22;3433;48.730;9.108;2022-10-26T16:27:42;19.30;99.90
6792;DHT22;3433;48.730;9.108;2022-10-26T16:30:11;19.20;99.90
6792;DHT22;3433;48.730;9.108;2022-10-26T16:32:39;19.10;99.90
6792;DHT22;3433;48.730;9.108;2022-10-26T16:35:07;19.00;99.90
6792;DHT22;3433;48.730;9.108;2022-10-26T16:37:34;18.90;99.90
6792;DHT22;3433;48.730;9.108;2022-10-26T16:40:03;18.80;99.90
6792;DHT22;3433;48.730;9.108;2022-10-26T16:42:30;18.70;99.90